createdAt,value
2019-03-10T10:07:18.230Z,93.70
2019-03-10T10:08:18.174Z,93.49
2019-03-10T10:09:18.114Z,94.01
2019-03-10T10:10:18.127Z,94.48
2019-03-10T10:11:18.165Z,93.75
2019-03-10T10:12:18.214Z,94.06
2019-03-10T10:13:18.071Z,94.64
2019-03-10T10:14:18.017Z,95.00
2019-03-10T10:15:18.017Z,94.95
2019-03-10T10:16:17.986Z,94.43
2019-03-10T10:17:17.998Z,95.26
2019-03-10T10:18:17.986Z,95.06
2019-03-10T10:19:17.948Z,94.64
2019-03-10T10:20:17.942Z,94.43
2019-03-10T10:21:17.924Z,94.12
2019-03-10T10:22:17.921Z,93.60
2019-03-10T10:23:17.953Z,93.71
2019-03-10T10:24:17.890Z,93.60
2019-03-10T10:25:17.882Z,94.02
2019-03-10T10:26:17.868Z,93.65
2019-03-10T10:27:20.088Z,94.06
2019-03-10T10:28:17.875Z,93.08
2019-03-10T10:29:17.865Z,93.60
2019-03-10T10:30:17.825Z,93.50
2019-03-10T10:31:17.817Z,94.08
2019-03-10T10:32:17.808Z,93.60
2019-03-10T10:33:17.804Z,94.18
2019-03-10T10:34:17.805Z,94.49
2019-03-10T10:35:17.806Z,94.49
2019-03-10T10:36:17.766Z,94.60
2019-03-10T10:37:17.751Z,93.71
2019-03-10T10:38:18.986Z,93.46
2019-03-10T10:39:17.734Z,93.71
2019-03-10T10:40:17.726Z,93.46
2019-03-10T10:41:17.743Z,94.08
2019-03-10T10:42:17.697Z,94.70
2019-03-10T10:43:17.686Z,95.12
2019-03-10T10:44:17.670Z,94.45
2019-03-10T10:45:17.702Z,93.52
2019-03-10T10:46:17.651Z,93.77
2019-03-10T10:47:17.679Z,94.04
2019-03-10T10:48:17.630Z,93.62
2019-03-10T10:49:17.609Z,94.14
2019-03-10T10:50:17.605Z,93.62
2019-03-10T10:51:17.617Z,93.73
2019-03-10T10:52:17.619Z,93.62
2019-03-10T10:53:17.607Z,93.62
2019-03-10T10:54:17.564Z,93.93
2019-03-10T10:55:17.552Z,93.41
2019-03-10T10:56:17.552Z,93.79
2019-03-10T10:57:17.548Z,92.44
2019-03-10T10:58:17.519Z,92.76
2019-03-10T10:59:17.517Z,92.96
2019-03-10T11:00:17.487Z,93.85
2019-03-10T11:01:17.477Z,93.43
2019-03-10T11:02:17.525Z,93.74
2019-03-10T11:03:17.451Z,93.39
2019-03-10T11:04:17.446Z,93.60
2019-03-10T11:05:17.451Z,93.49
2019-03-10T11:06:19.685Z,93.08
2019-03-10T11:07:17.413Z,92.93
2019-03-10T11:08:17.422Z,92.77
2019-03-10T11:09:17.383Z,92.42
2019-03-10T11:10:17.378Z,92.83
2019-03-10T11:11:17.384Z,92.52
2019-03-10T11:12:17.353Z,92.63
2019-03-10T11:13:17.487Z,91.49
2019-03-10T11:14:17.341Z,91.55
2019-03-10T11:15:17.325Z,92.07
2019-03-10T11:16:17.314Z,91.75
2019-03-10T11:17:17.312Z,92.27
2019-03-10T11:18:17.288Z,92.79
2019-03-10T11:19:17.327Z,92.64
2019-03-10T11:20:17.271Z,92.13
2019-03-10T11:21:17.254Z,91.82
2019-03-10T11:22:17.253Z,91.92
2019-03-10T11:23:17.252Z,92.23
2019-03-10T11:24:17.224Z,91.50
2019-03-10T11:25:17.227Z,92.44
2019-03-10T11:26:17.201Z,92.44
2019-03-10T11:27:17.197Z,90.99
2019-03-10T11:28:17.191Z,91.50
2019-03-10T11:29:17.184Z,91.92
2019-03-10T11:30:17.199Z,91.92
2019-03-10T11:31:17.152Z,91.92
2019-03-10T11:32:17.131Z,92.95
2019-03-10T11:33:17.130Z,92.23
2019-03-10T11:34:17.111Z,92.19
2019-03-10T11:35:17.133Z,92.40
2019-03-10T11:36:17.112Z,92.60
2019-03-10T11:37:17.080Z,93.07
2019-03-10T11:38:17.064Z,92.76
2019-03-10T11:39:17.057Z,92.66
2019-03-10T11:40:17.043Z,92.61
2019-03-10T11:41:17.038Z,92.72
2019-03-10T11:42:17.077Z,92.31
2019-03-10T11:43:17.011Z,91.89
2019-03-10T11:44:17.003Z,92.21
2019-03-10T11:45:16.985Z,91.24
2019-03-10T11:46:16.977Z,92.37
2019-03-10T11:47:17.013Z,91.13
2019-03-10T11:48:16.989Z,91.50
2019-03-10T11:49:16.949Z,91.30
2019-03-10T11:50:16.929Z,91.60
2019-03-10T11:51:16.922Z,91.46
2019-03-10T11:52:16.914Z,91.15
2019-03-10T11:53:19.347Z,91.15
2019-03-10T11:54:16.902Z,91.19
2019-03-10T11:55:16.977Z,91.56
2019-03-10T11:56:16.862Z,90.43
2019-03-10T11:57:16.858Z,90.53
2019-03-10T11:58:16.855Z,90.53
2019-03-10T11:59:16.971Z,91.05
2019-03-10T12:00:16.829Z,91.00
2019-03-10T12:01:16.815Z,90.59
2019-03-10T12:02:16.849Z,90.49
2019-03-10T12:03:16.800Z,91.17
2019-03-10T12:04:16.810Z,91.17
2019-03-10T12:05:16.772Z,90.92
2019-03-10T12:06:16.745Z,90.51
2019-03-10T12:07:16.761Z,89.58
2019-03-10T12:08:16.727Z,89.89
2019-03-10T12:09:16.740Z,89.64
2019-03-10T12:10:16.789Z,89.85
2019-03-10T12:11:16.705Z,89.89
2019-03-10T12:12:16.682Z,89.54
2019-03-10T12:13:16.675Z,89.44
2019-03-10T12:14:16.671Z,89.34
2019-03-10T12:15:16.679Z,89.38
2019-03-10T12:16:16.653Z,89.75
2019-03-10T12:17:16.664Z,90.57
2019-03-10T12:18:16.617Z,90.51
2019-03-10T12:19:16.611Z,90.26
2019-03-10T12:20:16.626Z,90.26
2019-03-10T12:21:16.582Z,90.57
2019-03-10T12:22:16.580Z,91.19
2019-03-10T12:23:16.566Z,90.47
2019-03-10T12:24:16.581Z,90.26
2019-03-10T12:25:16.535Z,89.13
2019-03-10T12:26:16.552Z,89.23
2019-03-10T12:27:16.513Z,89.85
2019-03-10T12:28:16.532Z,90.67
2019-03-10T12:29:16.492Z,90.47
2019-03-10T12:30:16.493Z,90.47
2019-03-10T12:31:16.525Z,90.26
2019-03-10T12:32:16.523Z,90.88
2019-03-10T12:33:16.458Z,90.88
2019-03-10T12:34:16.446Z,91.49
2019-03-10T12:35:16.420Z,91.08
2019-03-10T12:36:16.411Z,90.88
2019-03-10T12:37:16.430Z,91.60
2019-03-10T12:38:16.413Z,91.49
2019-03-10T12:39:17.293Z,91.29
2019-03-10T12:40:16.372Z,91.60
2019-03-10T12:41:16.356Z,91.60
2019-03-10T12:42:16.350Z,92.11
2019-03-10T12:43:16.417Z,91.49
2019-03-10T12:44:16.347Z,91.45
2019-03-10T12:45:16.313Z,91.86
2019-03-10T12:46:16.299Z,91.04
2019-03-10T12:47:16.286Z,90.94
2019-03-10T12:48:16.282Z,90.80
2019-03-10T12:49:16.282Z,91.25
2019-03-10T12:50:18.737Z,90.80
2019-03-10T12:51:16.237Z,90.18
2019-03-10T12:52:16.237Z,89.66
2019-03-10T12:53:16.224Z,90.48
2019-03-10T12:54:16.202Z,89.36
2019-03-10T12:55:16.281Z,89.56
2019-03-10T12:56:16.258Z,89.42
2019-03-10T12:57:16.182Z,88.64
2019-03-10T12:58:16.160Z,88.53
2019-03-10T12:59:16.152Z,89.56
2019-03-10T13:00:16.144Z,88.95
2019-03-10T13:01:16.146Z,89.56
2019-03-10T13:02:16.133Z,89.46
2019-03-10T13:03:16.109Z,89.46
2019-03-10T13:04:16.105Z,89.56
2019-03-10T13:05:16.076Z,88.95
2019-03-10T13:06:16.074Z,89.36
2019-03-10T13:07:16.107Z,89.66
2019-03-10T13:08:16.059Z,89.52
2019-03-10T13:09:16.045Z,88.70
2019-03-10T13:10:16.026Z,88.64
2019-03-10T13:11:16.018Z,88.64
2019-03-10T13:12:16.025Z,89.66
2019-03-10T13:13:16.046Z,89.46
2019-03-10T13:14:15.987Z,89.76
2019-03-10T13:15:15.984Z,89.04
2019-03-10T13:16:15.973Z,89.25
2019-03-10T13:17:15.955Z,89.04
2019-03-10T13:18:15.966Z,89.62
2019-03-10T13:19:15.935Z,89.42
2019-03-10T13:20:15.937Z,88.49
2019-03-10T13:21:15.901Z,88.70
2019-03-10T13:22:15.901Z,87.98
2019-03-10T13:23:15.892Z,87.88
2019-03-10T13:24:15.902Z,87.12
2019-03-10T13:25:15.870Z,87.32
2019-03-10T13:26:15.876Z,86.60
2019-03-10T13:27:15.833Z,86.19
2019-03-10T13:28:15.829Z,85.99
2019-03-10T13:29:15.816Z,86.50
2019-03-10T13:30:15.837Z,85.89
2019-03-10T13:31:15.801Z,86.13
2019-03-10T13:32:15.813Z,86.03
2019-03-10T13:33:15.761Z,86.71
2019-03-10T13:34:15.758Z,87.05
2019-03-10T13:35:15.788Z,87.46
2019-03-10T13:36:15.735Z,87.05
2019-03-10T13:37:15.723Z,86.60
2019-03-10T13:38:15.735Z,86.75
2019-03-10T13:39:15.704Z,87.02
2019-03-10T13:40:15.696Z,86.71
2019-03-10T13:41:15.695Z,85.47
2019-03-10T13:42:15.691Z,85.27
2019-03-10T13:43:15.660Z,85.06
2019-03-10T13:44:15.698Z,85.17
2019-03-10T13:45:15.632Z,86.30
2019-03-10T13:46:15.643Z,86.30
2019-03-10T13:47:15.623Z,86.19
2019-03-10T13:48:15.601Z,86.24
2019-03-10T13:49:15.585Z,85.89
2019-03-10T13:50:15.568Z,86.03
2019-03-10T13:51:15.566Z,86.03
2019-03-10T13:52:15.630Z,86.03
2019-03-10T13:53:15.539Z,86.24
2019-03-10T13:54:15.533Z,85.93
2019-03-10T13:55:15.517Z,86.24
2019-03-10T13:56:15.509Z,87.05
2019-03-10T13:57:15.554Z,87.67
2019-03-10T13:58:15.514Z,88.18
2019-03-10T13:59:15.483Z,87.82
2019-03-10T14:00:15.464Z,88.23
2019-03-10T14:01:15.451Z,88.53
2019-03-10T14:02:15.443Z,88.64
2019-03-10T14:03:15.454Z,88.74
2019-03-10T14:04:15.427Z,89.25
2019-03-10T14:05:15.406Z,88.95
2019-03-10T14:06:15.393Z,89.56
2019-03-10T14:07:15.390Z,89.04
2019-03-10T14:08:15.412Z,89.19
2019-03-10T14:09:15.349Z,89.50
2019-03-10T14:10:15.384Z,90.42
2019-03-10T14:11:15.332Z,90.32
2019-03-10T14:12:15.320Z,90.01
2019-03-10T14:13:15.313Z,90.88
2019-03-10T14:14:15.307Z,90.83
2019-03-10T14:15:15.290Z,90.94
2019-03-10T14:16:15.305Z,91.29
2019-03-10T14:17:15.269Z,91.91
2019-03-10T14:18:15.247Z,92.42
2019-03-10T14:19:15.275Z,92.42
2019-03-10T14:20:15.236Z,92.01
2019-03-10T14:21:15.217Z,92.63
2019-03-10T14:22:15.231Z,92.63
2019-03-10T14:23:15.200Z,93.14
2019-03-10T14:24:15.188Z,93.35
2019-03-10T14:25:15.187Z,93.65
2019-03-10T14:26:15.162Z,93.76
2019-03-10T14:27:15.150Z,93.86
2019-03-10T14:28:15.944Z,93.96
2019-03-10T14:29:15.127Z,94.01
2019-03-10T14:30:15.132Z,94.27
2019-03-10T14:31:15.111Z,93.55
2019-03-10T14:32:15.101Z,93.65
2019-03-10T14:33:15.092Z,93.65
2019-03-10T14:34:15.097Z,93.35
2019-03-10T14:35:15.107Z,93.44
2019-03-10T14:36:15.043Z,92.63
2019-03-10T14:37:15.043Z,93.14
2019-03-10T14:38:15.031Z,92.93
2019-03-10T14:39:15.017Z,93.04
2019-03-10T14:40:15.032Z,93.65
2019-03-10T14:41:15.020Z,93.76
2019-03-10T14:42:14.983Z,93.65
2019-03-10T14:43:14.969Z,93.82
2019-03-10T14:44:14.961Z,93.92
2019-03-10T14:45:14.959Z,93.71
2019-03-10T14:46:14.959Z,92.89
2019-03-10T14:47:14.952Z,92.79
2019-03-10T14:48:14.918Z,92.58
2019-03-10T14:49:22.629Z,92.64
2019-03-10T14:50:15.892Z,92.23
2019-03-10T14:51:14.884Z,91.00
2019-03-10T14:52:14.898Z,90.80
2019-03-10T14:53:14.863Z,90.80
2019-03-10T14:54:14.840Z,91.10
2019-03-10T14:55:14.852Z,90.80
2019-03-10T14:56:14.818Z,90.89
2019-03-10T14:57:14.838Z,90.18
2019-03-10T14:58:14.827Z,90.95
2019-03-10T14:59:14.783Z,90.91
2019-03-10T15:00:14.779Z,91.28
2019-03-10T15:01:14.772Z,90.87
2019-03-10T15:02:14.751Z,90.67
2019-03-10T15:03:14.767Z,89.54
2019-03-10T15:04:14.759Z,90.22
2019-03-10T15:05:14.717Z,89.87
2019-03-10T15:06:14.716Z,88.53
2019-03-10T15:07:14.701Z,88.17
2019-03-10T15:08:14.707Z,87.85
2019-03-10T15:09:14.742Z,88.17
2019-03-10T15:10:14.687Z,87.96
2019-03-10T15:11:14.654Z,88.10
2019-03-10T15:12:14.654Z,88.10
2019-03-10T15:13:14.626Z,88.10
2019-03-10T15:14:14.633Z,87.59
2019-03-10T15:15:22.458Z,87.08
2019-03-10T15:16:15.638Z,87.38
2019-03-10T15:17:14.584Z,87.49
2019-03-10T15:18:14.579Z,88.10
2019-03-10T15:19:14.582Z,88.24
2019-03-10T15:20:14.548Z,88.76
2019-03-10T15:21:14.539Z,89.48
2019-03-10T15:22:14.556Z,89.17
2019-03-10T15:23:14.523Z,88.66
2019-03-10T15:24:14.556Z,88.66
2019-03-10T15:25:14.498Z,87.84
2019-03-10T15:26:14.492Z,88.14
2019-03-10T15:27:22.988Z,88.24
2019-03-10T15:28:15.489Z,87.84
2019-03-10T15:29:14.446Z,87.98
2019-03-10T15:30:14.471Z,87.43
2019-03-10T15:31:14.443Z,87.32
2019-03-10T15:32:14.422Z,87.63
2019-03-10T15:33:14.409Z,87.43
2019-03-10T15:34:14.435Z,87.26
2019-03-10T15:35:14.383Z,86.44
2019-03-10T15:36:20.408Z,87.67
2019-03-10T15:37:14.362Z,87.67
2019-03-10T15:38:14.351Z,88.18
2019-03-10T15:39:14.366Z,88.29
2019-03-10T15:40:14.325Z,89.11
2019-03-10T15:41:14.340Z,89.36
2019-03-10T15:42:14.298Z,87.92
2019-03-10T15:43:14.291Z,88.62
2019-03-10T15:44:14.276Z,89.75
2019-03-10T15:45:14.291Z,90.81
2019-03-10T15:46:14.252Z,91.02
2019-03-10T15:47:14.306Z,91.13
2019-03-10T15:48:14.240Z,91.13
2019-03-10T15:49:14.224Z,91.33
2019-03-10T15:50:14.212Z,92.30
2019-03-10T15:51:14.239Z,92.16
2019-03-10T15:52:14.208Z,91.89
2019-03-10T15:53:14.177Z,92.92
2019-03-10T15:54:14.172Z,92.77
2019-03-10T15:55:14.161Z,93.08
2019-03-10T15:56:14.151Z,93.80
2019-03-10T15:57:14.169Z,94.01
2019-03-10T15:58:14.124Z,94.01
2019-03-10T15:59:14.111Z,93.39
2019-03-10T16:00:14.102Z,93.49
2019-03-10T16:01:14.094Z,92.87
2019-03-10T16:02:14.110Z,92.36
2019-03-10T16:03:14.095Z,92.32
2019-03-10T16:04:14.058Z,92.46
2019-03-10T16:05:14.046Z,91.80
2019-03-10T16:06:14.035Z,91.49
2019-03-10T16:07:14.024Z,91.91
2019-03-10T16:08:14.020Z,91.29
2019-03-10T16:09:14.002Z,91.60
2019-03-10T16:10:14.000Z,91.39
2019-03-10T16:11:13.975Z,91.08
2019-03-10T16:12:13.970Z,90.26
2019-03-10T16:13:13.975Z,90.47
2019-03-10T16:14:13.945Z,90.06
2019-03-10T16:15:13.932Z,89.54
2019-03-10T16:16:13.950Z,89.34
2019-03-10T16:17:13.917Z,88.72
2019-03-10T16:18:13.896Z,88.82
2019-03-10T16:19:13.903Z,88.10
2019-03-10T16:20:13.874Z,86.56
2019-03-10T16:21:13.865Z,86.87
2019-03-10T16:22:13.874Z,86.25
2019-03-10T16:23:13.837Z,86.32
2019-03-10T16:24:13.949Z,86.05
2019-03-10T16:25:13.816Z,86.25
2019-03-10T16:26:13.812Z,85.49
2019-03-10T16:27:13.794Z,86.15
2019-03-10T16:28:13.811Z,86.25
2019-03-10T16:29:13.769Z,86.15
2019-03-10T16:30:13.875Z,86.15
2019-03-10T16:31:13.757Z,86.77
2019-03-10T16:32:13.745Z,86.97
2019-03-10T16:33:13.735Z,86.66
2019-03-10T16:34:13.750Z,87.79
2019-03-10T16:35:13.736Z,87.79
2019-03-10T16:36:13.696Z,87.49
2019-03-10T16:37:13.689Z,87.90
2019-03-10T16:38:13.675Z,87.73
2019-03-10T16:39:13.656Z,87.94
2019-03-10T16:40:13.670Z,88.29
2019-03-10T16:41:13.656Z,88.76
2019-03-10T16:42:13.883Z,88.39
2019-03-10T16:43:13.620Z,89.11
2019-03-10T16:44:13.605Z,89.94
2019-03-10T16:45:13.593Z,88.90
2019-03-10T16:46:13.609Z,89.52
2019-03-10T16:47:13.595Z,89.52
2019-03-10T16:48:14.489Z,89.52
2019-03-10T16:49:13.553Z,89.52
2019-03-10T16:50:13.535Z,90.18
2019-03-10T16:51:13.557Z,89.97
2019-03-10T16:52:13.523Z,89.97
2019-03-10T16:53:13.522Z,90.59
2019-03-10T16:54:13.490Z,90.34
2019-03-10T16:55:13.476Z,90.18
2019-03-10T16:56:13.471Z,90.69
2019-03-10T16:57:13.478Z,90.59
2019-03-10T16:58:13.444Z,90.49
2019-03-10T16:59:13.459Z,90.49
2019-03-10T17:00:13.419Z,88.64
2019-03-10T17:01:13.419Z,88.47
2019-03-10T17:02:13.428Z,87.96
2019-03-10T17:03:13.393Z,88.26
2019-03-10T17:04:13.375Z,87.75
2019-03-10T17:05:15.531Z,87.65
2019-03-10T17:06:13.353Z,87.79
2019-03-10T17:07:13.348Z,87.38
2019-03-10T17:08:13.345Z,85.94
2019-03-10T17:09:13.325Z,86.55
2019-03-10T17:10:13.330Z,86.55
2019-03-10T17:11:13.325Z,85.31
2019-03-10T17:12:13.344Z,83.77
2019-03-10T17:13:13.301Z,83.87
2019-03-10T17:14:13.266Z,85.01
2019-03-10T17:15:13.253Z,84.70
2019-03-10T17:16:13.245Z,84.70
2019-03-10T17:17:13.262Z,85.01
2019-03-10T17:18:13.220Z,85.67
2019-03-10T17:19:13.237Z,84.84
2019-03-10T17:20:13.208Z,84.74
2019-03-10T17:21:13.190Z,84.53
2019-03-10T17:22:13.172Z,84.53
2019-03-10T17:23:13.187Z,84.33
2019-03-10T17:24:13.165Z,84.36
2019-03-10T17:25:13.160Z,84.33
2019-03-10T17:26:13.133Z,85.19
2019-03-10T17:27:13.121Z,84.36
2019-03-10T17:28:13.112Z,84.78
2019-03-10T17:29:13.153Z,84.57
2019-03-10T17:30:13.086Z,84.99
2019-03-10T17:31:13.083Z,84.67
2019-03-10T17:32:13.062Z,84.81
2019-03-10T17:33:13.055Z,84.81
2019-03-10T17:34:13.047Z,84.51
2019-03-10T17:35:13.072Z,84.81
2019-03-10T17:36:13.021Z,85.13
2019-03-10T17:37:13.005Z,84.72
2019-03-10T17:38:12.999Z,84.78
2019-03-10T17:39:12.984Z,84.92
2019-03-10T17:40:13.001Z,84.72
2019-03-10T17:41:12.991Z,84.72
2019-03-10T17:42:12.950Z,84.72
2019-03-10T17:43:12.945Z,84.47
2019-03-10T17:44:12.933Z,84.36
2019-03-10T17:45:12.919Z,84.67
2019-03-10T17:46:12.934Z,84.67
2019-03-10T17:47:12.918Z,85.09
2019-03-10T17:48:13.226Z,83.85
2019-03-10T17:49:12.870Z,83.44
2019-03-10T17:50:12.867Z,83.54
2019-03-10T17:51:12.867Z,83.33
2019-03-10T17:52:14.714Z,83.33
2019-03-10T17:53:12.851Z,83.95
2019-03-10T17:54:12.817Z,83.29
2019-03-10T17:55:12.813Z,82.92
2019-03-10T17:56:12.800Z,83.29
2019-03-10T17:57:12.798Z,83.23
2019-03-10T17:58:12.772Z,83.19
2019-03-10T17:59:12.781Z,83.19
2019-03-10T18:00:12.759Z,83.13
2019-03-10T18:01:12.748Z,83.23
2019-03-10T18:02:12.772Z,83.75
2019-03-10T18:03:12.722Z,83.75
2019-03-10T18:04:12.713Z,83.13
2019-03-10T18:05:12.824Z,82.61
2019-03-10T18:06:12.708Z,82.30
2019-03-10T18:07:12.681Z,81.75
2019-03-10T18:08:12.700Z,82.82
2019-03-10T18:09:12.655Z,82.51
2019-03-10T18:10:12.644Z,82.40
2019-03-10T18:11:12.680Z,82.20
2019-03-10T18:12:12.619Z,82.68
2019-03-10T18:13:12.607Z,82.89
2019-03-10T18:14:12.633Z,82.92
2019-03-10T18:15:12.596Z,82.71
2019-03-10T18:16:12.575Z,82.89
2019-03-10T18:17:12.587Z,83.13
2019-03-10T18:18:12.551Z,83.75
2019-03-10T18:19:12.542Z,83.40
2019-03-10T18:20:12.546Z,81.65
2019-03-10T18:21:12.520Z,82.30
2019-03-10T18:22:12.511Z,81.68
2019-03-10T18:23:12.517Z,82.20
2019-03-10T18:24:12.484Z,82.92
2019-03-10T18:25:12.476Z,83.03
2019-03-10T18:26:12.482Z,83.17
2019-03-10T18:27:12.447Z,83.99
2019-03-10T18:28:12.439Z,82.86
2019-03-10T18:29:12.449Z,82.24
2019-03-10T18:30:12.414Z,82.82
2019-03-10T18:31:12.431Z,82.96
2019-03-10T18:32:12.395Z,82.24
2019-03-10T18:33:12.386Z,82.03
2019-03-10T18:34:12.372Z,81.10
2019-03-10T18:35:12.359Z,81.00
2019-03-10T18:36:12.365Z,79.97
2019-03-10T18:37:12.384Z,78.21
2019-03-10T18:38:12.325Z,77.25
2019-03-10T18:39:12.316Z,76.32
2019-03-10T18:40:12.309Z,76.84
2019-03-10T18:41:12.290Z,77.04
2019-03-10T18:42:12.325Z,76.42
2019-03-10T18:43:12.269Z,76.63
2019-03-10T18:44:12.256Z,77.04
2019-03-10T18:45:12.252Z,74.88
2019-03-10T18:46:12.235Z,74.26
2019-03-10T18:47:12.251Z,74.05
2019-03-10T18:48:12.241Z,74.26
2019-03-10T18:49:12.218Z,74.26
2019-03-10T18:50:12.195Z,74.77
2019-03-10T18:51:12.188Z,73.68
2019-03-10T18:52:12.170Z,74.29
2019-03-10T18:53:12.182Z,73.26
2019-03-10T18:54:12.154Z,74.19
2019-03-10T18:55:12.161Z,74.60
2019-03-10T18:56:12.143Z,73.19
2019-03-10T18:57:12.117Z,73.57
2019-03-10T18:58:12.147Z,72.74
2019-03-10T18:59:12.088Z,72.44
2019-03-10T19:00:12.077Z,71.54
2019-03-10T19:01:12.107Z,71.30
2019-03-10T19:02:12.055Z,71.33
2019-03-10T19:03:12.045Z,70.92
2019-03-10T19:04:12.079Z,70.72
2019-03-10T19:05:12.027Z,71.41
2019-03-10T19:06:12.021Z,71.12
2019-03-10T19:07:12.035Z,70.40
2019-03-10T19:08:12.004Z,69.58
2019-03-10T19:09:11.977Z,70.30
2019-03-10T19:10:12.020Z,70.20
2019-03-10T19:11:11.966Z,70.20
2019-03-10T19:12:11.940Z,68.24
2019-03-10T19:13:11.936Z,68.75
2019-03-10T19:14:11.972Z,68.65
2019-03-10T19:15:11.993Z,68.34
2019-03-10T19:16:11.898Z,69.89
2019-03-10T19:17:11.920Z,70.75
2019-03-10T19:18:11.878Z,70.03
2019-03-10T19:19:11.868Z,70.12
2019-03-10T19:20:11.905Z,70.03
2019-03-10T19:21:11.847Z,70.33
2019-03-10T19:22:11.839Z,68.82
2019-03-10T19:23:11.825Z,68.71
2019-03-10T19:24:11.809Z,70.06
2019-03-10T19:25:11.815Z,70.16
2019-03-10T19:26:11.839Z,68.99
2019-03-10T19:27:11.777Z,68.40
2019-03-10T19:28:11.769Z,68.61
2019-03-10T19:29:11.761Z,68.82
2019-03-10T19:30:11.752Z,68.71
2019-03-10T19:31:11.764Z,68.61
2019-03-10T19:32:11.739Z,67.88
2019-03-10T19:33:11.714Z,68.61
2019-03-10T19:34:11.695Z,69.23
2019-03-10T19:35:11.696Z,69.06
2019-03-10T19:36:11.676Z,68.40
2019-03-10T19:37:11.694Z,68.74
2019-03-10T19:38:11.676Z,68.40
2019-03-10T19:39:11.649Z,68.02
2019-03-10T19:40:11.640Z,68.12
2019-03-10T19:41:11.631Z,67.68
2019-03-10T19:42:11.612Z,66.96
2019-03-10T19:43:11.613Z,67.88
2019-03-10T19:44:11.659Z,67.78
2019-03-10T19:45:11.589Z,68.09
2019-03-10T19:46:11.569Z,67.27
2019-03-10T19:47:11.570Z,68.23
2019-03-10T19:48:11.571Z,68.02
2019-03-10T19:49:11.531Z,68.33
2019-03-10T19:50:12.466Z,68.02
2019-03-10T19:51:11.522Z,67.19
2019-03-10T19:52:11.502Z,68.12
2019-03-10T19:53:11.522Z,67.82
2019-03-10T19:54:11.482Z,68.12
2019-03-10T19:55:11.469Z,67.82
2019-03-10T19:56:11.455Z,66.06
2019-03-10T19:57:11.480Z,66.23
2019-03-10T19:58:11.442Z,67.06
2019-03-10T19:59:11.443Z,68.43
2019-03-10T20:00:11.402Z,67.61
2019-03-10T20:01:11.399Z,68.43
2019-03-10T20:02:11.384Z,68.43
2019-03-10T20:03:11.371Z,68.43
2019-03-10T20:04:11.398Z,67.91
2019-03-10T20:05:11.359Z,68.12
2019-03-10T20:06:11.346Z,68.64
2019-03-10T20:07:11.329Z,69.16
2019-03-10T20:08:11.328Z,70.09
2019-03-10T20:09:11.339Z,70.12
2019-03-10T20:10:11.342Z,68.98
2019-03-10T20:11:11.299Z,69.92
2019-03-10T20:12:11.277Z,69.40
2019-03-10T20:13:11.267Z,68.85
2019-03-10T20:14:11.250Z,69.29
2019-03-10T20:15:11.255Z,70.19
2019-03-10T20:16:11.255Z,70.12
2019-03-10T20:17:11.214Z,69.88
2019-03-10T20:18:11.196Z,70.40
2019-03-10T20:19:11.195Z,70.95
2019-03-10T20:20:11.212Z,71.47
2019-03-10T20:21:11.175Z,71.81
2019-03-10T20:22:11.186Z,71.67
2019-03-10T20:23:11.142Z,70.67
2019-03-10T20:24:11.138Z,70.32
2019-03-10T20:25:11.123Z,70.95
2019-03-10T20:26:11.128Z,70.22
2019-03-10T20:27:11.107Z,70.95
2019-03-10T20:28:11.126Z,72.22
2019-03-10T20:29:11.079Z,73.15
2019-03-10T20:30:11.069Z,73.57
2019-03-10T20:31:11.087Z,73.81
2019-03-10T20:32:14.249Z,74.98
2019-03-10T20:33:11.054Z,74.36
2019-03-10T20:34:11.043Z,75.19
2019-03-10T20:35:11.021Z,75.19
2019-03-10T20:36:11.036Z,75.19
2019-03-10T20:37:11.087Z,75.32
2019-03-10T20:38:10.985Z,75.50
2019-03-10T20:39:10.974Z,75.40
2019-03-10T20:40:10.973Z,75.29
2019-03-10T20:41:10.946Z,75.09
2019-03-10T20:42:12.224Z,75.19
2019-03-10T20:43:10.928Z,74.67
2019-03-10T20:44:10.913Z,72.08
2019-03-10T20:45:10.907Z,70.29
2019-03-10T20:46:10.926Z,70.60
2019-03-10T20:47:12.526Z,71.15
2019-03-10T20:48:10.876Z,71.01
2019-03-10T20:49:10.862Z,69.35
2019-03-10T20:50:10.845Z,70.11
2019-03-10T20:51:10.837Z,70.25
2019-03-10T20:52:10.893Z,70.18
2019-03-10T20:53:10.823Z,71.11
2019-03-10T20:54:10.886Z,71.66
2019-03-10T20:55:10.789Z,70.56
2019-03-10T20:56:10.784Z,72.87
2019-03-10T20:57:10.774Z,72.38
2019-03-10T20:58:10.795Z,73.11
2019-03-10T20:59:10.747Z,73.25
2019-03-10T21:00:10.770Z,73.46
2019-03-10T21:01:10.735Z,73.56
2019-03-10T21:02:10.714Z,73.87
2019-03-10T21:03:10.739Z,74.18
2019-03-10T21:04:10.686Z,74.95
2019-03-10T21:05:10.689Z,75.05
2019-03-10T21:06:10.671Z,75.57
2019-03-10T21:07:10.685Z,75.46
2019-03-10T21:08:10.659Z,76.54
2019-03-10T21:09:10.675Z,76.12
2019-03-10T21:10:10.625Z,76.12
2019-03-10T21:11:12.478Z,76.75
2019-03-10T21:12:10.603Z,76.99
2019-03-10T21:13:10.590Z,77.51
2019-03-10T21:14:10.616Z,77.40
2019-03-10T21:15:10.600Z,78.03
2019-03-10T21:16:10.565Z,78.24
2019-03-10T21:17:10.549Z,79.07
2019-03-10T21:18:10.588Z,79.11
2019-03-10T21:19:10.529Z,79.32
2019-03-10T21:20:10.546Z,78.90
2019-03-10T21:21:10.533Z,79.52
2019-03-10T21:22:10.487Z,79.83
2019-03-10T21:23:10.496Z,81.29
2019-03-10T21:24:10.467Z,81.12
2019-03-10T21:25:10.451Z,80.91
2019-03-10T21:26:10.462Z,80.91
2019-03-10T21:27:10.436Z,81.54
2019-03-10T21:28:10.461Z,81.96
2019-03-10T21:29:10.447Z,81.65
2019-03-10T21:30:10.412Z,81.43
2019-03-10T21:31:10.410Z,81.85
2019-03-10T21:32:10.379Z,81.89
2019-03-10T21:33:10.363Z,82.41
2019-03-10T21:34:10.375Z,81.79
2019-03-10T21:35:17.723Z,81.65
2019-03-10T21:36:11.360Z,82.51
2019-03-10T21:37:10.328Z,81.68
2019-03-10T21:38:10.310Z,82.93
2019-03-10T21:39:10.297Z,82.51
2019-03-10T21:40:10.313Z,82.51
2019-03-10T21:41:14.198Z,82.82
2019-03-10T21:42:10.278Z,82.93
2019-03-10T21:43:10.257Z,82.62
2019-03-10T21:44:10.258Z,83.87
2019-03-10T21:45:10.240Z,83.87
2019-03-10T21:46:10.245Z,83.18
2019-03-10T21:47:10.243Z,83.14
2019-03-10T21:48:10.214Z,82.82
2019-03-10T21:49:10.188Z,83.45
2019-03-10T21:50:10.174Z,83.18
2019-03-10T21:51:10.170Z,83.91
2019-03-10T21:52:10.955Z,84.33
2019-03-10T21:53:10.166Z,83.87
2019-03-10T21:54:10.131Z,83.97
2019-03-10T21:55:10.119Z,83.76
2019-03-10T21:56:10.107Z,84.64
2019-03-10T21:57:10.108Z,84.53
2019-03-10T21:58:37.256Z,84.84
2019-03-10T21:59:10.121Z,84.22
2019-03-10T22:00:10.162Z,85.58
2019-03-10T22:01:10.105Z,85.05
2019-03-10T22:02:10.206Z,84.22
2019-03-10T22:03:10.071Z,84.43
2019-03-10T22:04:10.019Z,84.33
2019-03-10T22:05:10.036Z,84.74
2019-03-10T22:06:09.998Z,84.84
2019-03-10T22:07:10.017Z,85.89
2019-03-10T22:08:10.065Z,85.16
2019-03-10T22:09:09.966Z,84.84
2019-03-10T22:10:09.959Z,85.36
2019-03-10T22:11:09.943Z,85.61
2019-03-10T22:12:09.931Z,85.36
2019-03-10T22:13:09.967Z,85.41
2019-03-10T22:14:20.679Z,85.61
2019-03-10T22:15:09.969Z,85.72
2019-03-10T22:16:09.972Z,85.30
2019-03-10T22:17:09.939Z,85.72
2019-03-10T22:18:10.026Z,85.30
2019-03-10T22:19:09.875Z,85.61
2019-03-10T22:20:09.849Z,85.61
2019-03-10T22:21:09.880Z,85.72
2019-03-10T22:22:09.821Z,85.72
2019-03-10T22:23:09.816Z,85.30
2019-03-10T22:24:24.058Z,85.41
2019-03-10T22:25:13.034Z,85.93
2019-03-10T22:26:09.898Z,85.41
2019-03-10T22:27:09.882Z,86.07
2019-03-10T22:28:09.829Z,87.22
2019-03-10T22:29:09.909Z,85.97
2019-03-10T22:30:09.753Z,87.07
2019-03-10T22:31:09.730Z,86.49
2019-03-10T22:32:09.725Z,85.72
2019-03-10T22:33:09.717Z,86.35
2019-03-10T22:34:09.688Z,86.03
2019-03-10T22:35:09.705Z,85.76
2019-03-10T22:36:09.662Z,85.86
2019-03-10T22:37:20.411Z,86.49
2019-03-10T22:38:09.763Z,85.82
2019-03-10T22:39:09.746Z,86.03
2019-03-10T22:40:09.760Z,85.72
2019-03-10T22:41:09.888Z,85.51
2019-03-10T22:42:09.620Z,85.55
2019-03-10T22:43:09.583Z,85.51
2019-03-10T22:44:09.660Z,85.24
2019-03-10T22:45:09.571Z,85.55
2019-03-10T22:46:09.572Z,86.03
2019-03-10T22:47:19.093Z,85.65
2019-03-10T22:48:09.621Z,85.24
2019-03-10T22:49:09.637Z,85.24
2019-03-10T22:50:09.615Z,85.65
2019-03-10T22:51:20.815Z,85.76
2019-03-10T22:52:09.600Z,86.18
2019-03-10T22:53:18.158Z,86.28
2019-03-10T22:54:09.551Z,86.74
2019-03-10T22:55:09.585Z,86.94
2019-03-10T22:56:09.525Z,86.63
2019-03-10T22:57:10.385Z,86.69
2019-03-10T22:58:09.483Z,86.43
2019-03-10T22:59:09.491Z,86.84